Time;durP1;ratioP1;P1;durP2;ratioP2;P2;SDS_P1;SDS_P2;PMS_P1;PMS_P2;Temp;Humidity;BMP_temperature;BMP_pressure;BME280_temperature;BME280_humidity;BME280_pressure;Samples;Min_cycle;Max_cycle;Signal;HPM_P1;HPM_P2
2022/05/13 00:02:15;;;;;;;4.72;2.60;;;;;;;;;;4980901;28;20035;-88
2022/05/13 00:04:41;;;;;;;4.95;3.10;;;;;;;;;;4981905;28;20047;-90
2022/05/13 00:07:08;;;;;;;5.45;2.88;;;;;;;;;;4980156;28;20102;-89
2022/05/13 00:12:23;;;;;;;6.57;3.10;;;;;;;;;;4978465;28;20039;-90
2022/05/13 00:14:48;;;;;;;7.38;3.35;;;;;;;;;;4981820;28;20042;-89
2022/05/13 00:17:15;;;;;;;6.43;3.30;;;;;;;;;;4978847;28;20022;-88
2022/05/13 00:19:40;;;;;;;5.05;3.10;;;;;;;;;;4978811;28;20089;-88
2022/05/13 00:22:06;;;;;;;5.38;3.33;;;;;;;;;;4979829;28;20034;-88
2022/05/13 00:24:34;;;;;;;8.10;3.78;;;;;;;;;;4983501;28;20019;-89
2022/05/13 00:26:59;;;;;;;4.65;3.20;;;;;;;;;;4965328;28;20070;-88
2022/05/13 00:29:25;;;;;;;5.30;3.17;;;;;;;;;;4947654;28;20030;-88
2022/05/13 00:31:51;;;;;;;6.82;3.40;;;;;;;;;;4982597;28;20392;-89
2022/05/13 00:34:17;;;;;;;9.68;3.10;;;;;;;;;;4981219;28;20178;-89
2022/05/13 00:36:42;;;;;;;4.88;3.30;;;;;;;;;;4982947;28;20111;-89
2022/05/13 00:39:08;;;;;;;6.15;3.55;;;;;;;;;;4965791;28;20042;-89
2022/05/13 00:41:34;;;;;;;7.10;3.50;;;;;;;;;;4981567;28;20045;-89
2022/05/13 00:44:00;;;;;;;9.32;3.60;;;;;;;;;;4963933;28;20125;-89
2022/05/13 00:46:30;;;;;;;5.47;3.28;;;;;;;;;;4980577;28;20507;-89
2022/05/13 00:48:58;;;;;;;6.95;3.03;;;;;;;;;;4977929;28;20031;-89
2022/05/13 00:51:29;;;;;;;10.48;3.45;;;;;;;;;;4961779;28;20043;-89
2022/05/13 00:53:55;;;;;;;6.07;3.50;;;;;;;;;;4945912;28;20534;-88
2022/05/13 00:56:22;;;;;;;4.45;3.08;;;;;;;;;;4975492;28;20042;-89
2022/05/13 00:58:51;;;;;;;7.18;3.50;;;;;;;;;;4974738;28;20035;-89
2022/05/13 01:01:16;;;;;;;5.68;3.17;;;;;;;;;;4969203;28;20119;-90
2022/05/13 01:03:42;;;;;;;7.40;3.63;;;;;;;;;;4978614;28;20117;-89
2022/05/13 01:06:13;;;;;;;6.40;3.75;;;;;;;;;;4978843;28;20066;-88
2022/05/13 01:08:39;;;;;;;9.13;3.60;;;;;;;;;;4979620;28;20480;-88
2022/05/13 01:11:09;;;;;;;5.13;3.47;;;;;;;;;;4978221;28;20495;-88
2022/05/13 01:13:37;;;;;;;7.10;3.40;;;;;;;;;;4962228;28;20728;-88
2022/05/13 01:16:03;;;;;;;6.40;3.40;;;;;;;;;;4980535;28;20034;-88
2022/05/13 01:18:35;;;;;;;7.25;3.40;;;;;;;;;;4978158;28;20035;-88
2022/05/13 01:21:02;;;;;;;6.18;3.38;;;;;;;;;;4989093;28;20503;-88
2022/05/13 01:23:31;;;;;;;6.40;3.15;;;;;;;;;;4981435;28;20066;-88
2022/05/13 01:26:01;;;;;;;5.75;3.30;;;;;;;;;;4964997;28;20035;-88
2022/05/13 01:28:31;;;;;;;5.38;3.35;;;;;;;;;;4982788;28;20042;-88
2022/05/13 01:31:04;;;;;;;6.07;3.30;;;;;;;;;;4982824;28;20042;-89
2022/05/13 01:33:30;;;;;;;9.32;3.45;;;;;;;;;;4964530;28;20149;-88
2022/05/13 01:35:58;;;;;;;6.20;3.00;;;;;;;;;;4981264;28;20213;-88
2022/05/13 01:38:27;;;;;;;4.65;3.20;;;;;;;;;;4981697;28;20030;-89
2022/05/13 01:40:53;;;;;;;9.23;3.25;;;;;;;;;;4981671;28;20038;-88
2022/05/13 01:43:19;;;;;;;5.07;3.17;;;;;;;;;;4964362;28;20034;-89
2022/05/13 01:45:45;;;;;;;5.80;3.33;;;;;;;;;;4979190;28;20407;-88
2022/05/13 01:48:12;;;;;;;5.88;3.50;;;;;;;;;;4981706;28;20023;-88
2022/05/13 01:50:38;;;;;;;5.22;3.30;;;;;;;;;;4981343;28;20035;-88
2022/05/13 01:53:05;;;;;;;4.85;2.97;;;;;;;;;;4982730;28;20550;-89
2022/05/13 01:55:31;;;;;;;10.05;3.35;;;;;;;;;;4947129;28;20046;-89
2022/05/13 01:57:57;;;;;;;7.70;3.20;;;;;;;;;;4980964;28;20030;-90
2022/05/13 02:00:23;;;;;;;4.65;3.20;;;;;;;;;;4964334;28;20023;-89
2022/05/13 02:05:33;;;;;;;5.07;3.00;;;;;;;;;;4978932;28;20034;-89
2022/05/13 02:07:59;;;;;;;6.35;3.20;;;;;;;;;;4953554;28;20026;-89
2022/05/13 02:10:24;;;;;;;6.78;3.10;;;;;;;;;;4979829;28;20097;-88
2022/05/13 02:12:50;;;;;;;5.47;3.10;;;;;;;;;;4980227;28;20115;-90
2022/05/13 02:15:16;;;;;;;6.88;3.25;;;;;;;;;;4970937;28;20134;-90
2022/05/13 02:17:42;;;;;;;7.93;3.20;;;;;;;;;;4965750;28;20047;-89
2022/05/13 02:20:10;;;;;;;7.32;3.17;;;;;;;;;;4980698;28;20069;-90
2022/05/13 02:22:36;;;;;;;5.85;3.33;;;;;;;;;;4982940;28;20212;-87
2022/05/13 02:25:02;;;;;;;4.65;3.05;;;;;;;;;;4981500;28;20038;-88
2022/05/13 02:27:27;;;;;;;6.65;3.30;;;;;;;;;;4965589;28;20034;-87
2022/05/13 02:29:53;;;;;;;4.28;3.28;;;;;;;;;;4982889;28;20078;-87
2022/05/13 02:32:19;;;;;;;3.60;2.85;;;;;;;;;;4983658;28;20065;-88
2022/05/13 02:34:45;;;;;;;4.22;3.00;;;;;;;;;;4982435;28;20038;-90
2022/05/13 02:37:10;;;;;;;3.67;3.10;;;;;;;;;;4981662;28;20125;-89
2022/05/13 02:39:36;;;;;;;6.63;3.47;;;;;;;;;;4981185;28;20129;-90
2022/05/13 02:42:01;;;;;;;3.85;3.03;;;;;;;;;;4965680;28;20038;-89
2022/05/13 02:44:27;;;;;;;5.50;2.92;;;;;;;;;;4965171;28;20038;-89
2022/05/13 02:46:52;;;;;;;7.78;2.97;;;;;;;;;;4981393;28;20044;-88
2022/05/13 02:49:18;;;;;;;4.88;2.95;;;;;;;;;;4982937;28;20043;-88
2022/05/13 02:51:48;;;;;;;4.57;3.10;;;;;;;;;;4948226;28;20062;-88
2022/05/13 02:54:13;;;;;;;4.22;3.03;;;;;;;;;;4982396;28;20064;-89
2022/05/13 02:56:39;;;;;;;5.45;2.88;;;;;;;;;;4965482;28;20131;-89
2022/05/13 02:59:05;;;;;;;6.93;2.90;;;;;;;;;;4965410;28;20042;-88
2022/05/13 03:01:32;;;;;;;4.93;2.90;;;;;;;;;;4966359;28;20046;-89
2022/05/13 03:03:58;;;;;;;5.75;2.80;;;;;;;;;;4981241;28;20089;-87
2022/05/13 03:06:24;;;;;;;5.38;3.10;;;;;;;;;;4964588;28;20033;-87
2022/05/13 03:08:50;;;;;;;4.95;2.95;;;;;;;;;;4977362;28;20039;-87
2022/05/13 03:11:16;;;;;;;4.28;2.90;;;;;;;;;;4969467;28;20141;-87
2022/05/13 03:13:42;;;;;;;8.35;3.30;;;;;;;;;;4976136;28;20035;-89
2022/05/13 03:16:11;;;;;;;4.90;3.13;;;;;;;;;;4986334;28;20073;-90
2022/05/13 03:18:39;;;;;;;5.10;3.13;;;;;;;;;;4947871;28;20065;-88
2022/05/13 03:21:04;;;;;;;4.88;3.15;;;;;;;;;;4980681;28;20027;-88
2022/05/13 03:23:30;;;;;;;5.53;3.72;;;;;;;;;;4981814;28;20384;-89
2022/05/13 03:25:55;;;;;;;4.60;3.38;;;;;;;;;;4980598;28;20027;-89
2022/05/13 03:28:22;;;;;;;4.65;3.35;;;;;;;;;;4964644;28;20058;-88
2022/05/13 03:30:49;;;;;;;5.57;3.30;;;;;;;;;;4980994;28;20035;-89
2022/05/13 03:33:14;;;;;;;4.75;3.35;;;;;;;;;;4982646;28;20035;-89
2022/05/13 03:35:41;;;;;;;8.00;3.25;;;;;;;;;;4980152;28;20038;-90
2022/05/13 03:38:06;;;;;;;6.40;3.22;;;;;;;;;;4983453;28;20046;-89
2022/05/13 03:40:32;;;;;;;6.43;3.13;;;;;;;;;;4965452;28;20086;-89
2022/05/13 03:42:57;;;;;;;5.97;3.35;;;;;;;;;;4982302;28;20026;-89
2022/05/13 03:45:23;;;;;;;4.60;3.25;;;;;;;;;;4948377;28;20038;-87
2022/05/13 03:47:49;;;;;;;7.22;3.72;;;;;;;;;;4981075;28;20058;-88
2022/05/13 03:50:15;;;;;;;5.97;3.55;;;;;;;;;;4981620;28;20031;-89
2022/05/13 03:52:42;;;;;;;5.65;3.80;;;;;;;;;;4966028;28;20499;-90
2022/05/13 03:55:08;;;;;;;5.43;3.88;;;;;;;;;;4979254;28;20030;-88
2022/05/13 03:57:34;;;;;;;7.90;4.00;;;;;;;;;;4962592;28;20053;-88
2022/05/13 04:00:00;;;;;;;4.82;3.70;;;;;;;;;;4944420;28;20479;-89
2022/05/13 04:02:28;;;;;;;15.18;4.30;;;;;;;;;;4976025;28;20026;-89
2022/05/13 04:10:22;;;;;;;;;;;;;;;;;;4977264;28;20113;-88
2022/05/13 04:18:15;;;;;;;7.82;4.25;;;;;;;;;;4989463;28;20030;-89
2022/05/13 04:20:40;;;;;;;8.05;4.35;;;;;;;;;;4982061;28;20042;-90
2022/05/13 04:23:06;;;;;;;5.18;3.53;;;;;;;;;;4986062;28;20003;-89
2022/05/13 04:25:32;;;;;;;6.47;3.50;;;;;;;;;;4980071;28;20039;-88
2022/05/13 04:27:58;;;;;;;6.55;4.70;;;;;;;;;;4977208;28;20038;-89
2022/05/13 04:30:24;;;;;;;10.00;4.25;;;;;;;;;;4977208;28;20042;-89
2022/05/13 04:32:49;;;;;;;5.93;3.72;;;;;;;;;;4975280;28;20090;-88
2022/05/13 04:35:16;;;;;;;5.22;3.53;;;;;;;;;;4975843;28;20376;-88
2022/05/13 04:37:42;;;;;;;7.43;3.67;;;;;;;;;;4977392;28;20054;-88
2022/05/13 04:40:08;;;;;;;5.43;3.72;;;;;;;;;;4960468;28;20099;-88
2022/05/13 04:42:52;;;;;;;5.00;3.47;;;;;;;;;;4944287;28;20100;-88
2022/05/13 04:45:24;;;;;;;5.95;3.53;;;;;;;;;;4960064;28;20042;-90
2022/05/13 04:50:40;;;;;;;5.22;3.40;;;;;;;;;;4981720;28;20042;-88
2022/05/13 04:53:07;;;;;;;5.63;3.53;;;;;;;;;;4982284;28;20046;-88
2022/05/13 04:55:33;;;;;;;5.30;3.30;;;;;;;;;;4999842;23;20129;-85
2022/05/13 04:57:59;;;;;;;4.75;3.25;;;;;;;;;;5003530;28;20050;-85
2022/05/13 05:00:25;;;;;;;5.22;3.42;;;;;;;;;;5003114;28;20050;-85
2022/05/13 05:02:51;;;;;;;5.35;3.40;;;;;;;;;;5002754;28;20041;-85
2022/05/13 05:05:17;;;;;;;6.25;3.70;;;;;;;;;;5000297;28;20034;-85
2022/05/13 05:07:42;;;;;;;4.80;3.97;;;;;;;;;;4999387;28;20113;-85
2022/05/13 05:10:10;;;;;;;4.75;3.42;;;;;;;;;;5000470;28;20120;-84
2022/05/13 05:12:36;;;;;;;6.15;3.30;;;;;;;;;;4999849;28;20442;-85
2022/05/13 05:15:02;;;;;;;6.72;3.67;;;;;;;;;;5001821;28;20026;-85
2022/05/13 05:17:28;;;;;;;5.45;3.42;;;;;;;;;;5002442;28;20042;-85
2022/05/13 05:19:53;;;;;;;5.38;3.90;;;;;;;;;;5002785;28;20030;-85
2022/05/13 05:22:19;;;;;;;4.57;3.58;;;;;;;;;;5002654;28;20038;-85
2022/05/13 05:24:46;;;;;;;6.47;3.80;;;;;;;;;;5002798;28;20125;-85
2022/05/13 05:27:12;;;;;;;5.28;3.25;;;;;;;;;;5001655;28;20040;-85
2022/05/13 05:29:38;;;;;;;6.68;3.70;;;;;;;;;;4985247;28;20034;-86
2022/05/13 05:32:04;;;;;;;4.35;3.60;;;;;;;;;;5002380;28;20058;-85
2022/05/13 05:34:29;;;;;;;5.90;3.47;;;;;;;;;;5002206;28;20117;-85
2022/05/13 05:36:55;;;;;;;7.32;3.40;;;;;;;;;;5002448;28;20069;-85
2022/05/13 05:39:20;;;;;;;5.55;3.53;;;;;;;;;;4985429;28;20209;-85
2022/05/13 05:41:46;;;;;;;5.43;3.45;;;;;;;;;;4985116;28;20035;-85
2022/05/13 05:44:12;;;;;;;4.75;3.47;;;;;;;;;;5002432;28;20077;-85
2022/05/13 05:46:38;;;;;;;8.65;3.47;;;;;;;;;;5002349;28;20081;-85
2022/05/13 05:49:04;;;;;;;7.38;3.72;;;;;;;;;;5002131;28;20030;-85
2022/05/13 05:51:30;;;;;;;5.57;3.47;;;;;;;;;;5001775;28;20041;-85
2022/05/13 05:59:24;;;;;;;6.90;3.30;;;;;;;;;;5000381;28;20050;-86
2022/05/13 06:01:50;;;;;;;4.88;3.00;;;;;;;;;;4984389;28;20027;-85
2022/05/13 06:04:15;;;;;;;4.40;3.10;;;;;;;;;;4984617;28;20554;-85
2022/05/13 06:06:41;;;;;;;6.22;3.15;;;;;;;;;;5002370;28;20066;-85
2022/05/13 06:09:08;;;;;;;6.68;3.40;;;;;;;;;;4984644;28;20029;-85
2022/05/13 06:11:34;;;;;;;7.22;3.63;;;;;;;;;;5000690;28;20030;-85
2022/05/13 06:13:59;;;;;;;7.25;3.33;;;;;;;;;;5001713;28;20026;-85
2022/05/13 06:16:27;;;;;;;5.60;3.35;;;;;;;;;;5001394;28;20410;-85
2022/05/13 06:18:54;;;;;;;8.02;3.40;;;;;;;;;;5001917;28;20069;-85
2022/05/13 06:21:20;;;;;;;6.50;3.50;;;;;;;;;;5001729;28;20026;-85
2022/05/13 06:23:46;;;;;;;5.22;3.20;;;;;;;;;;5001932;28;20096;-85
2022/05/13 06:26:11;;;;;;;4.78;3.03;;;;;;;;;;5001292;28;20030;-85
2022/05/13 06:28:37;;;;;;;5.22;3.17;;;;;;;;;;5002103;28;20608;-85
2022/05/13 06:31:02;;;;;;;7.30;3.70;;;;;;;;;;5001557;28;20060;-85
2022/05/13 06:33:28;;;;;;;5.03;3.10;;;;;;;;;;4999660;28;20034;-85
2022/05/13 06:35:54;;;;;;;5.63;3.47;;;;;;;;;;5000896;28;20038;-86
2022/05/13 06:38:22;;;;;;;7.22;3.40;;;;;;;;;;4983976;28;20046;-85
2022/05/13 06:40:49;;;;;;;3.97;3.00;;;;;;;;;;5000833;28;20022;-85
2022/05/13 06:43:14;;;;;;;6.85;3.28;;;;;;;;;;5001296;28;20045;-85
2022/05/13 06:45:41;;;;;;;5.95;3.20;;;;;;;;;;5000828;28;20034;-85
2022/05/13 06:48:07;;;;;;;4.68;3.25;;;;;;;;;;5001819;28;20046;-85
2022/05/13 06:50:33;;;;;;;7.18;3.22;;;;;;;;;;5001475;28;20030;-85
2022/05/13 06:52:59;;;;;;;4.47;3.10;;;;;;;;;;4983360;28;20053;-86
2022/05/13 06:55:25;;;;;;;5.63;3.17;;;;;;;;;;5000965;28;20052;-85
2022/05/13 06:57:51;;;;;;;4.22;2.85;;;;;;;;;;5000051;28;20513;-86
2022/05/13 07:00:17;;;;;;;7.28;2.90;;;;;;;;;;4983836;28;20038;-85
2022/05/13 07:02:43;;;;;;;8.23;3.08;;;;;;;;;;5000622;28;20026;-85
2022/05/13 07:05:10;;;;;;;9.65;3.20;;;;;;;;;;4966994;28;20030;-85
2022/05/13 07:07:36;;;;;;;6.25;3.03;;;;;;;;;;5001033;28;20041;-85
2022/05/13 07:10:02;;;;;;;5.55;3.33;;;;;;;;;;4982241;28;20034;-85
2022/05/13 07:12:27;;;;;;;7.75;3.22;;;;;;;;;;4982895;28;20445;-85
2022/05/13 07:14:53;;;;;;;5.82;2.83;;;;;;;;;;4966940;28;20054;-85
2022/05/13 07:17:19;;;;;;;6.13;3.08;;;;;;;;;;5000295;28;20084;-85
2022/05/13 07:19:45;;;;;;;6.47;3.63;;;;;;;;;;5000237;28;20030;-85
2022/05/13 07:22:10;;;;;;;8.35;3.53;;;;;;;;;;5000578;28;20069;-85
2022/05/13 07:24:36;;;;;;;5.70;3.63;;;;;;;;;;5000278;28;20109;-85
2022/05/13 07:27:02;;;;;;;5.57;3.30;;;;;;;;;;4999856;28;20501;-85
2022/05/13 07:29:28;;;;;;;4.72;3.30;;;;;;;;;;5000423;28;20395;-85
2022/05/13 07:31:53;;;;;;;5.97;3.35;;;;;;;;;;5000307;28;20501;-86
2022/05/13 07:34:18;;;;;;;8.43;3.50;;;;;;;;;;5000038;28;20069;-86
2022/05/13 07:36:45;;;;;;;5.15;3.47;;;;;;;;;;4982390;28;20030;-86
2022/05/13 07:41:54;;;;;;;5.88;3.40;;;;;;;;;;5000525;28;20038;-85
2022/05/13 07:44:20;;;;;;;4.57;3.45;;;;;;;;;;4999946;28;20037;-85
2022/05/13 07:46:45;;;;;;;5.65;3.33;;;;;;;;;;4981889;28;20042;-86
2022/05/13 07:49:11;;;;;;;7.72;3.60;;;;;;;;;;5000768;28;20121;-85
2022/05/13 07:51:37;;;;;;;5.43;3.30;;;;;;;;;;4999683;28;20495;-85
2022/05/13 07:54:03;;;;;;;6.22;3.70;;;;;;;;;;4999810;28;20070;-86
2022/05/13 07:56:29;;;;;;;5.32;3.47;;;;;;;;;;4999678;28;20093;-85
2022/05/13 07:58:57;;;;;;;6.40;3.83;;;;;;;;;;5000734;28;20030;-86
2022/05/13 08:01:23;;;;;;;7.32;3.42;;;;;;;;;;5000061;28;20038;-85
2022/05/13 08:03:49;;;;;;;5.40;3.53;;;;;;;;;;4999650;28;20117;-85
2022/05/13 08:06:15;;;;;;;3.88;3.25;;;;;;;;;;4982549;28;20519;-85
2022/05/13 08:08:42;;;;;;;4.22;3.20;;;;;;;;;;4999147;28;20120;-85
2022/05/13 08:11:14;;;;;;;5.40;3.60;;;;;;;;;;4999483;28;20036;-85
2022/05/13 08:13:40;;;;;;;5.00;3.40;;;;;;;;;;5000289;28;20041;-85
2022/05/13 08:16:10;;;;;;;7.32;3.78;;;;;;;;;;5000237;28;20053;-85
2022/05/13 08:18:35;;;;;;;6.88;3.60;;;;;;;;;;4999736;28;20042;-85
2022/05/13 08:21:01;;;;;;;5.20;3.60;;;;;;;;;;4999518;28;20026;-85
2022/05/13 08:23:27;;;;;;;5.68;3.75;;;;;;;;;;4999226;28;20080;-85
2022/05/13 08:25:53;;;;;;;5.60;4.00;;;;;;;;;;4982419;28;20471;-85
2022/05/13 08:28:20;;;;;;;7.10;3.65;;;;;;;;;;4999660;28;20068;-85
2022/05/13 08:30:46;;;;;;;5.25;3.78;;;;;;;;;;4999174;28;20046;-85
2022/05/13 08:33:12;;;;;;;6.40;3.72;;;;;;;;;;4980140;28;20079;-84
2022/05/13 08:35:49;;;;;;;7.40;3.90;;;;;;;;;;4998861;28;20054;-84
2022/05/13 08:38:17;;;;;;;6.70;3.63;;;;;;;;;;4997972;28;20031;-84
2022/05/13 08:40:49;;;;;;;5.57;4.10;;;;;;;;;;4996945;28;20057;-84
2022/05/13 08:43:22;;;;;;;6.03;3.95;;;;;;;;;;4996401;28;20488;-84
2022/05/13 08:45:55;;;;;;;7.20;3.80;;;;;;;;;;4994974;28;20034;-84
2022/05/13 08:48:31;;;;;;;4.25;3.20;;;;;;;;;;4996008;28;20495;-84
2022/05/13 08:51:45;;;;;;;5.65;3.40;;;;;;;;;;4978434;28;20034;-84
2022/05/13 08:54:14;;;;;;;5.38;3.53;;;;;;;;;;4937582;28;20096;-84
2022/05/13 08:56:41;;;;;;;6.95;3.95;;;;;;;;;;4996307;28;20133;-84
2022/05/13 08:59:37;;;;;;;6.43;3.60;;;;;;;;;;4978255;28;20414;-85
2022/05/13 09:02:20;;;;;;;5.53;3.20;;;;;;;;;;4998972;28;20031;-85
2022/05/13 09:04:52;;;;;;;11.90;3.45;;;;;;;;;;4999728;28;20039;-85
2022/05/13 09:07:19;;;;;;;5.72;3.20;;;;;;;;;;4999610;28;20506;-85
2022/05/13 09:09:50;;;;;;;5.05;3.00;;;;;;;;;;4999637;28;20026;-85
2022/05/13 09:12:29;;;;;;;5.60;3.17;;;;;;;;;;4982429;28;20030;-85
2022/05/13 09:15:13;;;;;;;6.93;2.92;;;;;;;;;;4999382;28;20020;-85
2022/05/13 09:17:40;;;;;;;;;;;;;;;;;;5000257;28;20042;-85
2022/05/13 09:20:11;;;;;;;5.25;2.88;;;;;;;;;;4999807;28;19909;-86
2022/05/13 09:22:36;;;;;;;5.75;2.72;;;;;;;;;;5000828;28;20038;-85
2022/05/13 09:25:03;;;;;;;4.13;2.40;;;;;;;;;;4998474;28;20048;-85
2022/05/13 09:27:28;;;;;;;4.72;2.70;;;;;;;;;;4999387;28;20050;-85
2022/05/13 09:29:54;;;;;;;5.20;2.30;;;;;;;;;;4995631;28;20574;-85
2022/05/13 09:32:28;;;;;;;4.53;2.65;;;;;;;;;;4996774;28;20026;-86
2022/05/13 09:35:05;;;;;;;3.45;2.67;;;;;;;;;;5001189;28;20030;-86
2022/05/13 09:37:39;;;;;;;5.18;2.50;;;;;;;;;;5001716;28;20034;-85
2022/05/13 09:40:10;;;;;;;5.90;2.67;;;;;;;;;;5002407;28;20050;-85
2022/05/13 09:42:42;;;;;;;3.70;2.72;;;;;;;;;;5002083;28;20035;-85
2022/05/13 09:45:23;;;;;;;4.07;2.50;;;;;;;;;;5000734;28;20042;-85
2022/05/13 09:48:05;;;;;;;5.53;2.42;;;;;;;;;;5001785;28;20118;-86
2022/05/13 09:50:41;;;;;;;5.53;2.63;;;;;;;;;;5001517;28;20046;-86
2022/05/13 09:53:14;;;;;;;5.35;2.58;;;;;;;;;;5000957;28;20042;-86
2022/05/13 09:55:42;;;;;;;3.70;2.80;;;;;;;;;;5002342;28;20030;-85
2022/05/13 09:58:45;;;;;;;4.97;2.67;;;;;;;;;;5000538;28;20034;-86
2022/05/13 10:01:13;;;;;;;4.18;2.83;;;;;;;;;;4996881;28;20046;-85
2022/05/13 10:03:40;;;;;;;5.28;2.75;;;;;;;;;;5000837;28;20038;-85
2022/05/13 10:06:08;;;;;;;3.08;2.45;;;;;;;;;;4999924;28;20054;-85
2022/05/13 10:08:48;;;;;;;7.97;2.53;;;;;;;;;;5000531;28;20058;-85
2022/05/13 10:14:08;;;;;;;3.95;2.10;;;;;;;;;;4999103;28;20042;-85
2022/05/13 10:16:42;;;;;;;4.00;2.40;;;;;;;;;;5000501;28;20476;-86
2022/05/13 10:19:18;;;;;;;3.47;2.03;;;;;;;;;;4982998;28;20034;-86
2022/05/13 10:21:52;;;;;;;4.72;2.50;;;;;;;;;;5000271;28;20451;-86
2022/05/13 10:24:54;;;;;;;4.60;2.60;;;;;;;;;;5001497;28;20082;-86
2022/05/13 10:27:23;;;;;;;2.83;2.00;;;;;;;;;;5002697;28;20045;-86
2022/05/13 10:29:52;;;;;;;5.90;2.40;;;;;;;;;;5001782;28;20054;-86
2022/05/13 10:32:25;;;;;;;3.15;2.03;;;;;;;;;;5000189;28;20042;-86
2022/05/13 10:34:53;;;;;;;7.33;3.83;;;;;;;;;;5002395;28;20045;-86
2022/05/13 10:37:36;;;;;;;5.43;2.65;;;;;;;;;;5002454;28;20295;-86
2022/05/13 10:40:11;;;;;;;4.00;2.50;;;;;;;;;;5003192;28;20038;-86
2022/05/13 10:42:41;;;;;;;3.63;2.40;;;;;;;;;;5002163;28;20040;-86
2022/05/13 10:45:24;;;;;;;2.80;2.40;;;;;;;;;;4985355;28;20509;-86
2022/05/13 10:48:02;;;;;;;3.63;2.20;;;;;;;;;;4985627;28;20046;-86
2022/05/13 10:50:57;;;;;;;3.95;2.25;;;;;;;;;;5003254;28;20038;-86
2022/05/13 10:54:00;;;;;;;2.90;2.03;;;;;;;;;;5003529;28;20045;-86
2022/05/13 10:56:53;;;;;;;4.35;2.20;;;;;;;;;;5022952;23;20038;-87
2022/05/13 10:59:38;;;;;;;4.40;2.72;;;;;;;;;;4998793;28;20098;-88
2022/05/13 11:03:01;;;;;;;3.05;2.10;;;;;;;;;;4998977;28;20038;-87
2022/05/13 11:05:37;;;;;;;2.58;2.25;;;;;;;;;;4899943;29;20044;-89
2022/05/13 11:08:09;;;;;;;3.42;2.17;;;;;;;;;;4915264;29;20130;-88
2022/05/13 11:10:47;;;;;;;4.53;2.30;;;;;;;;;;4956856;28;20458;-88
2022/05/13 11:13:32;;;;;;;3.60;2.40;;;;;;;;;;4965174;28;20137;-88
2022/05/13 11:16:19;;;;;;;4.00;2.03;;;;;;;;;;4997656;28;20030;-88
2022/05/13 11:19:02;;;;;;;6.80;2.92;;;;;;;;;;5001120;28;20038;-88
2022/05/13 11:21:45;;;;;;;3.57;2.30;;;;;;;;;;5000907;28;20030;-88
2022/05/13 11:27:37;;;;;;;6.45;2.70;;;;;;;;;;4999162;28;20034;-89
2022/05/13 11:30:28;;;;;;;3.78;2.72;;;;;;;;;;5000091;28;20038;-88
2022/05/13 11:33:02;;;;;;;5.00;2.85;;;;;;;;;;4980426;28;20108;-88
2022/05/13 11:35:40;;;;;;;4.65;2.60;;;;;;;;;;4997112;28;20043;-87
2022/05/13 11:38:37;;;;;;;3.55;2.70;;;;;;;;;;4980982;28;20513;-88
2022/05/13 11:41:11;;;;;;;6.25;2.08;;;;;;;;;;4998249;28;20045;-89
2022/05/13 11:43:51;;;;;;;2.80;2.00;;;;;;;;;;4996275;28;20133;-88
2022/05/13 11:46:28;;;;;;;6.45;1.60;;;;;;;;;;4979996;28;20069;-87
2022/05/13 11:49:06;;;;;;;4.03;1.50;;;;;;;;;;4995646;28;20100;-90
2022/05/13 11:51:34;;;;;;;1.92;1.30;;;;;;;;;;4997059;28;20027;-88
2022/05/13 11:53:59;;;;;;;3.28;1.58;;;;;;;;;;4962694;28;20061;-88
2022/05/13 11:56:31;;;;;;;11.98;2.70;;;;;;;;;;4977578;28;20038;-84
2022/05/13 11:59:11;;;;;;;11.15;2.70;;;;;;;;;;4995176;28;20549;-87
2022/05/13 12:01:46;;;;;;;9.15;2.58;;;;;;;;;;4977970;28;20026;-87
2022/05/13 12:04:11;;;;;;;8.77;3.38;;;;;;;;;;4995824;28;20030;-87
2022/05/13 12:06:55;;;;;;;5.50;1.65;;;;;;;;;;4993687;28;20042;-87
2022/05/13 12:09:37;;;;;;;4.10;1.50;;;;;;;;;;4977636;28;20044;-89
2022/05/13 12:12:36;;;;;;;3.80;1.40;;;;;;;;;;4976146;28;20037;-87
2022/05/13 12:15:22;;;;;;;4.40;1.48;;;;;;;;;;4992978;28;20128;-87
2022/05/13 12:17:54;;;;;;;5.45;1.70;;;;;;;;;;5004222;28;20061;-87
2022/05/13 12:20:31;;;;;;;7.15;1.50;;;;;;;;;;4994419;28;20048;-87
2022/05/13 12:23:25;;;;;;;2.95;1.50;;;;;;;;;;4994160;28;20478;-87
2022/05/13 12:26:02;;;;;;;3.42;1.35;;;;;;;;;;5000932;28;20495;-88
2022/05/13 12:29:01;;;;;;;7.40;1.50;;;;;;;;;;4994881;28;20046;-86
2022/05/13 12:31:29;;;;;;;2.00;1.42;;;;;;;;;;4995759;28;20057;-88
2022/05/13 12:39:53;;;;;;;4.13;1.42;;;;;;;;;;4996316;28;20384;-88
2022/05/13 12:42:37;;;;;;;3.13;1.70;;;;;;;;;;4978497;28;20042;-89
2022/05/13 12:45:04;;;;;;;2.90;1.70;;;;;;;;;;4996327;28;20034;-89
2022/05/13 12:47:31;;;;;;;4.07;1.63;;;;;;;;;;4994396;28;20026;-88
2022/05/13 12:50:41;;;;;;;2.42;1.88;;;;;;;;;;4996122;28;20435;-87
2022/05/13 12:53:29;;;;;;;3.40;2.10;;;;;;;;;;4974322;28;20110;-89
2022/05/13 12:56:22;;;;;;;2.92;2.00;;;;;;;;;;4995821;28;20045;-89
2022/05/13 12:58:55;;;;;;;4.28;2.00;;;;;;;;;;4962112;28;20121;-87
2022/05/13 13:01:20;;;;;;;3.08;1.77;;;;;;;;;;4995881;28;20521;-87
2022/05/13 13:03:48;;;;;;;2.75;2.20;;;;;;;;;;4997160;28;20030;-87
2022/05/13 13:06:17;;;;;;;3.42;1.55;;;;;;;;;;4996470;28;20479;-89
2022/05/13 13:08:51;;;;;;;2.88;1.75;;;;;;;;;;4997909;28;20487;-86
2022/05/13 13:11:40;;;;;;;3.15;1.85;;;;;;;;;;4998926;28;20061;-87
2022/05/13 13:14:30;;;;;;;3.38;1.90;;;;;;;;;;4992679;28;20056;-87
2022/05/13 13:17:26;;;;;;;4.18;1.88;;;;;;;;;;4981700;28;20039;-87
2022/05/13 13:20:00;;;;;;;2.78;1.70;;;;;;;;;;5006645;28;20034;-87
2022/05/13 13:22:31;;;;;;;2.95;1.70;;;;;;;;;;4997865;28;20034;-87
2022/05/13 13:24:57;;;;;;;3.30;2.10;;;;;;;;;;5007485;28;20073;-87
2022/05/13 13:27:28;;;;;;;3.28;2.08;;;;;;;;;;5001406;28;20065;-89
2022/05/13 13:29:54;;;;;;;4.22;2.05;;;;;;;;;;5001324;28;20068;-88
2022/05/13 13:32:22;;;;;;;2.75;1.90;;;;;;;;;;5001222;28;20035;-87
2022/05/13 13:34:53;;;;;;;3.03;1.95;;;;;;;;;;4966785;28;20128;-88
2022/05/13 13:37:31;;;;;;;2.70;1.80;;;;;;;;;;4983475;28;20125;-88
2022/05/13 13:40:12;;;;;;;2.33;1.70;;;;;;;;;;4982453;28;20030;-86
2022/05/13 13:42:38;;;;;;;2.85;1.83;;;;;;;;;;4999813;28;20035;-89
2022/05/13 13:45:13;;;;;;;4.82;1.90;;;;;;;;;;5000052;28;20026;-88
2022/05/13 13:47:48;;;;;;;2.60;1.63;;;;;;;;;;4983110;28;20045;-86
2022/05/13 13:50:21;;;;;;;3.40;1.95;;;;;;;;;;4982056;28;20048;-87
2022/05/13 13:52:49;;;;;;;2.42;1.60;;;;;;;;;;5000430;28;20038;-87
2022/05/13 13:55:33;;;;;;;2.25;1.83;;;;;;;;;;4999501;28;20138;-88
2022/05/13 13:58:31;;;;;;;4.28;1.85;;;;;;;;;;4997947;28;20038;-89
2022/05/13 14:01:08;;;;;;;2.22;1.90;;;;;;;;;;4999516;28;20042;-87
2022/05/13 14:03:33;;;;;;;2.20;1.75;;;;;;;;;;4998736;28;20118;-87
2022/05/13 14:06:03;;;;;;;2.70;1.60;;;;;;;;;;4998706;28;20053;-87
2022/05/13 14:08:34;;;;;;;3.20;1.67;;;;;;;;;;4980771;28;20129;-88
2022/05/13 14:10:59;;;;;;;6.90;1.80;;;;;;;;;;4998016;28;20042;-87
2022/05/13 14:13:36;;;;;;;2.85;2.00;;;;;;;;;;4980713;28;20104;-86
2022/05/13 14:16:23;;;;;;;4.03;1.70;;;;;;;;;;5005829;28;20061;-89
2022/05/13 14:18:51;;;;;;;2.22;1.80;;;;;;;;;;4979152;28;20068;-86
2022/05/13 14:21:20;;;;;;;1.95;1.52;;;;;;;;;;4979221;28;20493;-87
2022/05/13 14:24:01;;;;;;;2.47;1.48;;;;;;;;;;4995357;28;20064;-86
2022/05/13 14:26:29;;;;;;;2.10;1.67;;;;;;;;;;4994886;28;20084;-87
2022/05/13 14:28:55;;;;;;;2.53;1.83;;;;;;;;;;4979046;28;20088;-87
2022/05/13 14:31:36;;;;;;;2.53;1.67;;;;;;;;;;4978299;28;20026;-89
2022/05/13 14:34:15;;;;;;;6.03;1.60;;;;;;;;;;5005938;28;20062;-89
2022/05/13 14:36:45;;;;;;;2.53;1.80;;;;;;;;;;4998862;28;20434;-88
2022/05/13 14:42:15;;;;;;;2.25;1.75;;;;;;;;;;4998896;28;20037;-89
2022/05/13 14:44:43;;;;;;;2.45;1.45;;;;;;;;;;4980947;28;20068;-88
2022/05/13 14:47:17;;;;;;;3.85;1.80;;;;;;;;;;4980485;28;20065;-86
2022/05/13 14:49:55;;;;;;;3.88;1.67;;;;;;;;;;4998410;28;20053;-88
2022/05/13 14:52:40;;;;;;;3.17;1.80;;;;;;;;;;4997039;28;20141;-86
2022/05/13 14:55:36;;;;;;;3.30;1.52;;;;;;;;;;4980717;28;20046;-87
2022/05/13 14:58:20;;;;;;;3.47;1.70;;;;;;;;;;4998298;28;20038;-88
2022/05/13 15:00:47;;;;;;;2.55;2.00;;;;;;;;;;4995547;28;20034;-88
2022/05/13 15:03:20;;;;;;;3.00;1.80;;;;;;;;;;4979374;28;20073;-86
2022/05/13 15:05:46;;;;;;;2.13;1.80;;;;;;;;;;4978543;28;20038;-87
2022/05/13 15:08:40;;;;;;;2.75;2.15;;;;;;;;;;4961161;28;20046;-87
2022/05/13 15:11:08;;;;;;;7.38;2.08;;;;;;;;;;5003542;28;20096;-89
2022/05/13 15:13:33;;;;;;;2.70;2.13;;;;;;;;;;4997258;28;20042;-89
2022/05/13 15:15:59;;;;;;;3.95;2.28;;;;;;;;;;4997186;28;20501;-89
2022/05/13 15:18:24;;;;;;;7.20;2.10;;;;;;;;;;4997751;28;20038;-87
2022/05/13 15:20:51;;;;;;;5.15;2.40;;;;;;;;;;4979320;28;20053;-88
2022/05/13 15:23:17;;;;;;;2.67;2.03;;;;;;;;;;4963408;28;20042;-88
2022/05/13 15:25:47;;;;;;;5.32;2.50;;;;;;;;;;4979063;28;20418;-86
2022/05/13 15:28:15;;;;;;;2.55;2.20;;;;;;;;;;4995445;28;20451;-87
2022/05/13 15:30:42;;;;;;;5.47;2.10;;;;;;;;;;4978150;28;20062;-88
2022/05/13 15:33:08;;;;;;;2.92;2.10;;;;;;;;;;4995016;28;20057;-87
2022/05/13 15:35:35;;;;;;;3.67;2.10;;;;;;;;;;4994838;28;20503;-87
2022/05/13 15:38:01;;;;;;;3.70;2.33;;;;;;;;;;4976834;28;20115;-86
2022/05/13 15:40:28;;;;;;;3.35;2.30;;;;;;;;;;5004435;28;20034;-90
2022/05/13 15:42:57;;;;;;;4.55;2.30;;;;;;;;;;4997720;28;20030;-87
2022/05/13 15:45:24;;;;;;;3.67;2.45;;;;;;;;;;4996279;28;20113;-88
2022/05/13 15:47:53;;;;;;;4.95;2.50;;;;;;;;;;4979109;28;20027;-87